Time;durP1;ratioP1;P1;durP2;ratioP2;P2;SDS_P1;SDS_P2;PMS_P1;PMS_P2;Temp;Humidity;BMP_temperature;BMP_pressure;BME280_temperature;BME280_humidity;BME280_pressure;Samples;Min_cycle;Max_cycle;Signal;HPM_P1;HPM_P2
2022/04/13 02:18:44;;;;;;;8.45;5.60;;;13.90;58.70;;;;;;4884169;29;20112;-82
2022/04/13 02:21:10;;;;;;;6.88;5.50;;;13.90;58.90;;;;;;4868041;29;20438;-82
2022/04/13 02:23:36;;;;;;;8.25;6.57;;;13.90;58.90;;;;;;4896027;29;20432;-82
2022/04/13 02:26:02;;;;;;;7.72;6.18;;;13.90;59.10;;;;;;4897894;29;20060;-82
2022/04/13 02:28:27;;;;;;;7.22;6.10;;;13.90;59.10;;;;;;4881801;29;20085;-82
2022/04/13 02:30:53;;;;;;;8.95;7.50;;;13.90;59.20;;;;;;4881400;29;20084;-82
2022/04/13 02:33:20;;;;;;;12.82;9.07;;;13.90;59.30;;;;;;4871019;29;20523;-82
2022/04/13 02:35:45;;;;;;;10.18;7.85;;;13.90;59.40;;;;;;4866356;29;20053;-82
2022/04/13 02:38:11;;;;;;;12.07;9.18;;;13.90;59.50;;;;;;4897431;29;20064;-82
2022/04/13 02:40:37;;;;;;;12.15;7.57;;;13.90;59.60;;;;;;4881532;29;20048;-82
2022/04/13 02:43:02;;;;;;;12.23;8.45;;;13.90;59.70;;;;;;4883122;29;20195;-82
2022/04/13 02:45:28;;;;;;;10.25;7.82;;;13.80;59.70;;;;;;4900213;29;20061;-82
2022/04/13 02:47:53;;;;;;;12.40;8.02;;;13.80;59.70;;;;;;4895358;29;20083;-82
2022/04/13 02:50:19;;;;;;;9.73;8.63;;;13.80;59.70;;;;;;4881816;29;20072;-82
2022/04/13 02:52:45;;;;;;;11.77;8.32;;;13.80;59.80;;;;;;4882500;29;20044;-82
2022/04/13 02:55:12;;;;;;;9.68;7.90;;;13.80;59.70;;;;;;4882802;29;20051;-82
2022/04/13 02:57:38;;;;;;;8.32;7.05;;;13.80;59.70;;;;;;4894325;29;20049;-82
2022/04/13 03:00:04;;;;;;;9.25;7.35;;;13.90;59.70;;;;;;4881773;29;20044;-82
2022/04/13 03:02:30;;;;;;;11.38;8.88;;;13.80;59.60;;;;;;4894719;29;20501;-83
2022/04/13 03:04:55;;;;;;;9.45;7.45;;;13.80;59.60;;;;;;4899905;29;20057;-82
2022/04/13 03:07:24;;;;;;;11.45;8.32;;;13.80;59.60;;;;;;4890930;29;20184;-82
2022/04/13 03:09:49;;;;;;;12.52;9.30;;;13.70;59.60;;;;;;4882503;29;20512;-81
2022/04/13 03:12:15;;;;;;;12.73;8.85;;;13.70;59.70;;;;;;4885892;29;20049;-82
2022/04/13 03:14:40;;;;;;;11.35;8.13;;;13.70;59.80;;;;;;4881071;29;20052;-83
2022/04/13 03:17:07;;;;;;;12.48;9.70;;;13.60;59.80;;;;;;4890106;29;20040;-82
2022/04/13 03:19:32;;;;;;;11.70;9.07;;;13.70;60.40;;;;;;4918258;29;20052;-82
2022/04/13 03:21:58;;;;;;;13.73;8.65;;;13.70;60.00;;;;;;4917533;29;20119;-82
2022/04/13 03:24:27;;;;;;;13.20;10.82;;;13.70;60.10;;;;;;4918428;29;20096;-82
2022/04/13 03:26:53;;;;;;;12.25;8.95;;;13.70;60.20;;;;;;4890304;29;20083;-82
2022/04/13 03:29:19;;;;;;;13.80;10.23;;;13.60;60.20;;;;;;4917474;29;20051;-82
2022/04/13 03:31:45;;;;;;;10.55;8.55;;;13.60;60.30;;;;;;4915497;29;20388;-81
2022/04/13 03:34:10;;;;;;;14.40;9.70;;;13.60;60.30;;;;;;4914005;29;20050;-81
2022/04/13 03:36:42;;;;;;;16.33;11.73;;;13.60;60.30;;;;;;4900952;29;20051;-82
2022/04/13 03:39:08;;;;;;;12.05;8.98;;;13.60;60.50;;;;;;4917376;29;20535;-81
2022/04/13 03:41:36;;;;;;;11.55;8.23;;;13.60;60.50;;;;;;4917846;29;20079;-81
2022/04/13 03:44:03;;;;;;;9.65;8.07;;;13.60;60.30;;;;;;4916915;29;20063;-82
2022/04/13 03:46:29;;;;;;;10.10;8.10;;;13.60;60.20;;;;;;4900034;29;20145;-81
2022/04/13 03:48:55;;;;;;;11.77;9.40;;;13.60;60.10;;;;;;4917911;29;20048;-81
2022/04/13 03:51:20;;;;;;;9.73;7.93;;;13.60;60.00;;;;;;4916307;29;20572;-82
2022/04/13 03:53:46;;;;;;;13.90;8.50;;;13.60;60.00;;;;;;4900027;29;20073;-81
2022/04/13 03:56:12;;;;;;;12.35;9.13;;;13.60;59.90;;;;;;4917674;29;20052;-81
2022/04/13 03:58:40;;;;;;;10.63;8.05;;;13.50;59.80;;;;;;4917330;29;20059;-81
2022/04/13 04:01:06;;;;;;;12.80;9.43;;;13.60;59.80;;;;;;4910525;29;20509;-81
2022/04/13 04:03:32;;;;;;;10.75;8.32;;;13.60;59.90;;;;;;4917402;29;20040;-81
2022/04/13 04:05:57;;;;;;;10.35;7.82;;;13.50;59.80;;;;;;4899163;29;20480;-81
2022/04/13 04:08:25;;;;;;;11.07;8.98;;;13.60;59.80;;;;;;4917262;29;20120;-81
2022/04/13 04:10:52;;;;;;;10.80;8.68;;;13.50;59.80;;;;;;4900492;29;20052;-81
2022/04/13 04:13:18;;;;;;;10.43;7.53;;;13.60;59.90;;;;;;4917327;29;20047;-81
2022/04/13 04:15:43;;;;;;;11.98;8.23;;;13.50;59.80;;;;;;4908955;29;20496;-81
2022/04/13 04:18:09;;;;;;;11.60;9.18;;;13.50;59.80;;;;;;4916617;29;20075;-81
2022/04/13 04:20:34;;;;;;;10.35;8.65;;;13.50;59.90;;;;;;4917172;29;20400;-81
2022/04/13 04:23:00;;;;;;;10.25;8.43;;;13.50;59.90;;;;;;4912008;29;20476;-81
2022/04/13 04:25:26;;;;;;;12.48;10.25;;;13.50;59.90;;;;;;4899424;29;20047;-81
2022/04/13 04:27:52;;;;;;;10.73;8.50;;;13.50;60.00;;;;;;4915685;29;20036;-81
2022/04/13 04:30:17;;;;;;;12.55;9.43;;;13.40;60.00;;;;;;4917447;29;20131;-81
2022/04/13 04:32:43;;;;;;;11.13;9.70;;;13.50;60.10;;;;;;4916727;29;20040;-81
2022/04/13 04:35:09;;;;;;;11.43;9.13;;;13.40;60.10;;;;;;4916818;29;20048;-81
2022/04/13 04:37:35;;;;;;;12.85;9.40;;;13.40;60.10;;;;;;4894217;29;20056;-80
2022/04/13 04:40:01;;;;;;;16.70;11.95;;;13.40;60.20;;;;;;4917523;29;20043;-82
2022/04/13 04:42:27;;;;;;;13.77;9.70;;;13.40;60.30;;;;;;4916856;29;20072;-80
2022/04/13 04:44:57;;;;;;;15.65;12.65;;;13.40;60.40;;;;;;4901846;29;20052;-81
2022/04/13 04:47:23;;;;;;;14.90;11.60;;;13.50;60.80;;;;;;4916483;29;20051;-81
2022/04/13 04:49:49;;;;;;;12.43;10.23;;;13.30;60.80;;;;;;4920825;29;20361;-81
2022/04/13 04:52:14;;;;;;;15.38;10.27;;;13.40;60.80;;;;;;4884810;29;20105;-81
2022/04/13 04:54:40;;;;;;;15.43;10.95;;;13.30;60.70;;;;;;4918984;29;20091;-81
2022/04/13 04:57:07;;;;;;;15.07;11.57;;;13.30;60.70;;;;;;4920157;29;20115;-81
2022/04/13 04:59:32;;;;;;;12.18;9.63;;;13.30;60.70;;;;;;4920021;29;20051;-81
2022/04/13 05:01:58;;;;;;;13.15;11.35;;;13.30;60.70;;;;;;4903538;29;20052;-82
2022/04/13 05:04:23;;;;;;;12.18;9.98;;;13.30;60.90;;;;;;4919178;29;20425;-82
2022/04/13 05:06:49;;;;;;;13.70;11.20;;;13.30;60.90;;;;;;4919488;29;20044;-81
2022/04/13 05:09:17;;;;;;;17.83;12.65;;;13.20;60.90;;;;;;4918048;29;20052;-82
2022/04/13 05:11:43;;;;;;;20.83;15.38;;;13.20;61.10;;;;;;4918983;29;20052;-81
2022/04/13 05:14:09;;;;;;;15.65;12.00;;;13.20;61.60;;;;;;4902873;29;20055;-82
2022/04/13 05:16:35;;;;;;;17.10;12.38;;;13.20;61.70;;;;;;4919325;29;20103;-82
2022/04/13 05:19:00;;;;;;;15.60;11.85;;;13.20;61.80;;;;;;4902604;29;20500;-82
2022/04/13 05:21:26;;;;;;;22.10;17.48;;;13.20;61.80;;;;;;4900346;29;20056;-81
2022/04/13 05:23:52;;;;;;;19.30;15.02;;;13.10;62.20;;;;;;4918341;29;20044;-82
2022/04/13 05:26:18;;;;;;;16.85;13.73;;;13.20;62.60;;;;;;4919564;29;20043;-81
2022/04/13 05:28:45;;;;;;;16.63;13.80;;;13.20;62.80;;;;;;4918140;29;20399;-82
2022/04/13 05:31:11;;;;;;;19.20;14.70;;;13.20;62.90;;;;;;4915003;29;20059;-82
2022/04/13 05:33:37;;;;;;;18.92;15.00;;;13.20;63.10;;;;;;4918388;29;20040;-81
2022/04/13 05:36:03;;;;;;;20.30;15.60;;;13.30;63.30;;;;;;4903353;29;20044;-82
2022/04/13 05:38:29;;;;;;;22.10;15.65;;;13.20;63.50;;;;;;4902704;29;20084;-81
2022/04/13 05:40:55;;;;;;;20.60;15.90;;;13.20;63.80;;;;;;4901440;29;20048;-82
2022/04/13 05:43:20;;;;;;;18.25;15.10;;;13.20;64.10;;;;;;4902799;29;20433;-81
2022/04/13 05:45:46;;;;;;;17.23;14.50;;;13.20;64.20;;;;;;4919792;29;20047;-81
2022/04/13 05:48:12;;;;;;;19.38;14.60;;;13.20;64.30;;;;;;4918950;29;20055;-81
2022/04/13 05:50:37;;;;;;;17.70;14.10;;;13.20;64.30;;;;;;4919487;29;20568;-81
2022/04/13 05:53:03;;;;;;;18.33;14.32;;;13.30;64.60;;;;;;4917969;29;20123;-81
2022/04/13 05:55:29;;;;;;;19.60;14.60;;;13.20;64.60;;;;;;4917073;29;20448;-81
2022/04/13 05:57:56;;;;;;;19.48;14.73;;;13.20;64.90;;;;;;4919027;29;20062;-81
2022/04/13 06:00:21;;;;;;;20.13;14.32;;;13.20;65.00;;;;;;4902755;29;20079;-81
2022/04/13 06:02:47;;;;;;;18.50;14.48;;;13.30;65.10;;;;;;4918609;29;20488;-81
2022/04/13 06:05:13;;;;;;;21.70;14.73;;;13.30;65.10;;;;;;4919301;29;20048;-81
2022/04/13 06:07:40;;;;;;;18.38;15.02;;;13.30;65.40;;;;;;4905887;29;20139;-82
2022/04/13 06:10:06;;;;;;;23.75;14.55;;;13.30;65.80;;;;;;4912356;29;20577;-81
2022/04/13 06:12:33;;;;;;;22.63;14.95;;;13.30;66.00;;;;;;4917236;29;20377;-81
2022/04/13 06:15:12;;;;;;;17.10;12.68;;;13.40;66.00;;;;;;4901139;29;20373;-82
2022/04/13 06:17:38;;;;;;;16.50;12.52;;;13.40;65.70;;;;;;4900315;29;20047;-82
2022/04/13 06:20:05;;;;;;;16.63;13.38;;;13.50;65.70;;;;;;4915731;29;20088;-81
2022/04/13 06:22:32;;;;;;;15.80;12.68;;;13.50;65.80;;;;;;4911952;29;20563;-81
2022/04/13 06:25:00;;;;;;;16.88;12.48;;;13.50;65.80;;;;;;4908992;29;20522;-81
2022/04/13 06:27:26;;;;;;;17.80;13.25;;;13.60;65.60;;;;;;4905711;29;20044;-81
2022/04/13 06:29:53;;;;;;;15.18;12.15;;;13.70;65.50;;;;;;4901557;29;20107;-80
2022/04/13 06:32:18;;;;;;;18.25;12.00;;;13.60;65.40;;;;;;4901839;29;20063;-79
2022/04/13 06:34:44;;;;;;;16.23;12.68;;;13.70;65.40;;;;;;4904344;29;20052;-81
2022/04/13 06:37:10;;;;;;;21.65;14.30;;;13.70;65.70;;;;;;4902155;29;20048;-80
2022/04/13 06:39:35;;;;;;;17.20;12.77;;;13.80;66.00;;;;;;4918887;29;20409;-80
2022/04/13 06:42:01;;;;;;;15.18;12.70;;;13.80;66.40;;;;;;4919225;29;20168;-81
2022/04/13 06:44:28;;;;;;;16.73;12.68;;;13.80;66.60;;;;;;4918980;29;20059;-80
2022/04/13 06:46:54;;;;;;;18.40;12.68;;;13.90;66.70;;;;;;4917014;29;20040;-81
2022/04/13 06:49:19;;;;;;;18.35;12.80;;;14.00;67.00;;;;;;4899989;29;20136;-80
2022/04/13 06:51:45;;;;;;;15.38;12.02;;;14.00;67.10;;;;;;4898644;29;20084;-81
2022/04/13 06:54:11;;;;;;;16.92;12.48;;;14.10;67.10;;;;;;4919232;29;20442;-81
2022/04/13 06:56:39;;;;;;;16.27;12.35;;;14.10;66.90;;;;;;4918080;29;20062;-80
2022/04/13 06:59:05;;;;;;;13.98;10.90;;;14.40;67.10;;;;;;4901843;29;20052;-81
2022/04/13 07:01:31;;;;;;;17.20;11.63;;;14.30;66.70;;;;;;4901379;29;20056;-80
2022/04/13 07:03:56;;;;;;;17.75;11.65;;;14.30;66.50;;;;;;4918653;29;20050;-81
2022/04/13 07:06:22;;;;;;;15.98;10.25;;;14.40;66.60;;;;;;4910994;29;20095;-80
2022/04/13 07:08:48;;;;;;;19.98;11.68;;;14.40;66.30;;;;;;4918167;29;20060;-81
2022/04/13 07:11:13;;;;;;;15.80;11.30;;;14.60;66.50;;;;;;4918295;29;20099;-80
2022/04/13 07:13:39;;;;;;;16.63;11.13;;;14.70;66.70;;;;;;4917678;29;20044;-81
2022/04/13 07:16:04;;;;;;;14.48;9.73;;;14.80;66.20;;;;;;4917996;29;20075;-80
2022/04/13 07:18:30;;;;;;;12.65;11.35;;;14.80;65.90;;;;;;4917943;29;20111;-81
2022/04/13 07:20:56;;;;;;;14.85;10.48;;;14.90;65.90;;;;;;4908363;29;20043;-80
2022/04/13 07:23:21;;;;;;;19.27;13.30;;;15.00;65.80;;;;;;4918593;29;20098;-80
2022/04/13 07:25:47;;;;;;;17.33;10.57;;;15.00;65.70;;;;;;4917629;29;20048;-80
2022/04/13 07:28:13;;;;;;;18.75;12.27;;;15.10;65.40;;;;;;4917997;29;20374;-81
2022/04/13 07:30:39;;;;;;;16.02;10.98;;;15.10;65.30;;;;;;4899460;29;20477;-81
2022/04/13 07:33:05;;;;;;;16.13;11.43;;;15.20;65.20;;;;;;4918088;29;20048;-81
2022/04/13 07:35:32;;;;;;;21.58;12.75;;;15.30;64.80;;;;;;4918134;29;20047;-81
2022/04/13 07:37:58;;;;;;;21.20;13.48;;;15.60;64.70;;;;;;4917838;29;20123;-81
2022/04/13 07:40:24;;;;;;;18.23;13.40;;;15.30;64.50;;;;;;4907992;29;20044;-80
2022/04/13 07:42:50;;;;;;;18.65;13.60;;;15.40;64.80;;;;;;4917327;29;20104;-81
2022/04/13 07:45:15;;;;;;;22.70;15.73;;;15.40;64.80;;;;;;4917887;29;20052;-80
2022/04/13 07:47:41;;;;;;;20.45;15.15;;;15.50;64.90;;;;;;4917565;29;20048;-81
2022/04/13 07:50:08;;;;;;;23.52;15.48;;;15.50;64.70;;;;;;4917580;29;20138;-80
2022/04/13 07:52:37;;;;;;;26.55;16.48;;;15.60;64.90;;;;;;4917615;29;20095;-80
2022/04/13 07:55:04;;;;;;;21.88;15.43;;;15.70;65.00;;;;;;4917917;29;20123;-80
2022/04/13 07:57:30;;;;;;;22.05;16.27;;;15.70;64.80;;;;;;4917796;29;20068;-80
2022/04/13 07:59:56;;;;;;;23.35;15.55;;;15.80;65.40;;;;;;4917764;29;20044;-80
2022/04/13 08:02:22;;;;;;;23.52;15.95;;;15.90;66.00;;;;;;4917313;29;20044;-81
2022/04/13 08:04:47;;;;;;;20.33;13.95;;;16.10;66.20;;;;;;4917446;29;20484;-80
2022/04/13 08:07:14;;;;;;;21.50;13.75;;;16.40;65.80;;;;;;4917707;29;20059;-81
2022/04/13 08:09:40;;;;;;;20.60;12.95;;;16.70;65.20;;;;;;4917676;29;20044;-81
2022/04/13 08:12:06;;;;;;;20.48;11.82;;;17.00;64.50;;;;;;4917470;29;20068;-81
2022/04/13 08:14:32;;;;;;;18.80;11.98;;;17.30;64.30;;;;;;4917327;29;20059;-81
2022/04/13 08:16:58;;;;;;;17.38;11.40;;;17.80;63.50;;;;;;4916098;29;20044;-81
2022/04/13 08:19:23;;;;;;;17.77;12.02;;;18.00;62.50;;;;;;4916865;29;20091;-81
2022/04/13 08:21:49;;;;;;;16.80;11.05;;;18.40;61.60;;;;;;4900163;29;20052;-81
2022/04/13 08:24:18;;;;;;;16.50;10.18;;;18.70;60.60;;;;;;4917310;29;20039;-80
2022/04/13 08:26:44;;;;;;;14.88;10.30;;;19.00;60.10;;;;;;4900069;29;20108;-81
2022/04/13 08:29:10;;;;;;;18.27;10.30;;;19.40;59.50;;;;;;4901229;29;20037;-81
2022/04/13 08:31:37;;;;;;;14.15;9.88;;;19.60;58.90;;;;;;4881861;29;20139;-81
2022/04/13 08:34:02;;;;;;;10.45;7.95;;;19.90;58.40;;;;;;4917003;29;20396;-80
2022/04/13 08:36:28;;;;;;;15.43;8.98;;;20.10;57.70;;;;;;4916964;29;20050;-81
2022/04/13 08:38:54;;;;;;;14.68;8.55;;;20.30;57.30;;;;;;4915454;29;20080;-81
2022/04/13 08:41:49;;;;;;;14.18;9.45;;;20.50;56.70;;;;;;4917160;29;20400;-80
2022/04/13 08:44:28;;;;;;;13.23;8.55;;;20.70;56.00;;;;;;4881778;29;20055;-80
2022/04/13 08:47:01;;;;;;;13.75;8.40;;;20.90;55.20;;;;;;4906393;29;20071;-80
2022/04/13 08:49:28;;;;;;;11.43;8.00;;;20.90;54.80;;;;;;4898459;29;20053;-80
2022/04/13 08:51:55;;;;;;;12.90;7.90;;;21.00;55.00;;;;;;4898512;29;20048;-81
2022/04/13 08:54:28;;;;;;;10.82;6.82;;;21.20;54.50;;;;;;4916534;29;20045;-80
2022/04/13 08:56:55;;;;;;;13.65;6.97;;;21.30;54.10;;;;;;4916776;29;20044;-80
2022/04/13 08:59:52;;;;;;;10.43;6.10;;;21.50;53.90;;;;;;4916919;29;20055;-80
2022/04/13 09:02:24;;;;;;;10.50;6.25;;;21.70;53.60;;;;;;4916133;29;20116;-80
2022/04/13 09:04:51;;;;;;;8.40;5.35;;;21.90;53.20;;;;;;4904092;29;20078;-81
2022/04/13 09:07:18;;;;;;;9.15;5.20;;;22.10;52.70;;;;;;4916664;29;20048;-81
2022/04/13 09:09:49;;;;;;;9.35;5.13;;;22.30;52.30;;;;;;4916916;29;20048;-81
2022/04/13 09:12:18;;;;;;;12.13;5.72;;;22.40;51.80;;;;;;4915965;29;20064;-80
2022/04/13 09:14:45;;;;;;;8.52;5.55;;;22.60;51.40;;;;;;4917248;29;20048;-80
2022/04/13 09:17:12;;;;;;;10.32;4.75;;;22.70;51.40;;;;;;4916915;29;20088;-80
2022/04/13 09:19:38;;;;;;;7.53;4.32;;;22.90;51.00;;;;;;4916242;29;20059;-81
2022/04/13 09:22:09;;;;;;;7.53;4.38;;;23.00;50.30;;;;;;4917087;29;20052;-81
2022/04/13 09:24:37;;;;;;;9.65;5.13;;;23.20;50.00;;;;;;4916580;29;20416;-81
2022/04/13 09:27:04;;;;;;;10.30;4.90;;;23.30;49.70;;;;;;4899961;29;20067;-81
2022/04/13 09:29:30;;;;;;;7.40;4.07;;;23.40;49.50;;;;;;4916438;29;20036;-81
2022/04/13 09:31:56;;;;;;;8.02;4.47;;;23.50;49.30;;;;;;4904129;29;20095;-81
2022/04/13 09:34:21;;;;;;;9.38;4.57;;;23.60;49.10;;;;;;4914399;29;20117;-81
2022/04/13 09:36:48;;;;;;;7.85;3.85;;;23.70;48.80;;;;;;4920320;29;20120;-81
2022/04/13 09:39:15;;;;;;;6.43;3.63;;;23.70;48.60;;;;;;4920030;29;20051;-81
2022/04/13 09:41:41;;;;;;;7.38;3.92;;;23.80;48.30;;;;;;4919646;29;20047;-81
2022/04/13 09:44:14;;;;;;;10.38;3.97;;;23.70;48.20;;;;;;4903113;29;20036;-80
2022/04/13 09:46:41;;;;;;;7.95;3.70;;;23.90;48.10;;;;;;4919122;29;20048;-81
2022/04/13 09:49:14;;;;;;;8.25;3.55;;;23.70;47.90;;;;;;4919860;29;20039;-80
2022/04/13 09:51:42;;;;;;;6.97;3.40;;;23.60;47.80;;;;;;4918558;29;20539;-81
2022/04/13 09:54:10;;;;;;;6.82;4.15;;;23.50;47.90;;;;;;4902663;29;20040;-81
2022/04/13 09:56:40;;;;;;;8.32;4.72;;;23.40;48.00;;;;;;4920016;29;20044;-81
2022/04/13 09:59:06;;;;;;;12.52;6.63;;;23.30;48.60;;;;;;4918554;29;20131;-81
2022/04/13 10:01:35;;;;;;;7.22;4.15;;;23.40;49.50;;;;;;4919542;29;20055;-81
2022/04/13 10:04:03;;;;;;;9.18;4.60;;;23.40;49.20;;;;;;4919362;29;20084;-81
2022/04/13 10:06:30;;;;;;;6.88;4.07;;;23.40;49.30;;;;;;4908858;29;20092;-81
2022/04/13 10:09:08;;;;;;;8.70;4.70;;;23.30;49.20;;;;;;4905104;29;20048;-81
2022/04/13 10:11:34;;;;;;;9.20;4.78;;;23.40;49.10;;;;;;4919602;29;20060;-81
2022/04/13 10:14:05;;;;;;;8.90;4.35;;;23.40;49.10;;;;;;4914782;29;20045;-80
2022/04/13 10:16:35;;;;;;;7.93;4.32;;;23.40;49.10;;;;;;4908997;29;20055;-81
2022/04/13 10:19:03;;;;;;;10.25;4.85;;;23.40;49.30;;;;;;4915237;29;20052;-82
2022/04/13 10:21:49;;;;;;;7.30;4.30;;;23.50;48.90;;;;;;4902731;29;20067;-82
2022/04/13 10:24:21;;;;;;;7.05;4.25;;;23.50;49.00;;;;;;4902066;29;20388;-79
2022/04/13 10:27:05;;;;;;;8.50;4.90;;;23.50;48.90;;;;;;4918619;29;20048;-80
2022/04/13 10:29:41;;;;;;;10.43;4.93;;;23.60;49.00;;;;;;4898963;29;20052;-80
2022/04/13 10:32:11;;;;;;;6.68;3.90;;;23.60;48.70;;;;;;4917148;29;20051;-80
2022/04/13 10:34:38;;;;;;;7.93;3.78;;;23.60;48.40;;;;;;4915937;29;20051;-80
2022/04/13 10:37:05;;;;;;;9.70;4.72;;;23.60;48.40;;;;;;4899170;29;20080;-80
2022/04/13 10:39:31;;;;;;;7.40;3.47;;;23.60;48.40;;;;;;4917776;29;20040;-80
2022/04/13 10:41:57;;;;;;;8.70;4.72;;;23.70;48.40;;;;;;4900257;29;20087;-80
2022/04/13 10:44:35;;;;;;;8.20;4.70;;;23.70;48.40;;;;;;4899013;29;20055;-81
2022/04/13 10:47:12;;;;;;;9.75;4.53;;;23.70;48.00;;;;;;4916870;29;20051;-80
2022/04/13 10:49:58;;;;;;;7.28;3.50;;;23.70;48.20;;;;;;4916597;29;20540;-80
2022/04/13 10:52:40;;;;;;;7.13;3.75;;;23.60;48.20;;;;;;4915463;29;20051;-80
2022/04/13 10:55:11;;;;;;;7.75;4.35;;;23.60;48.00;;;;;;4915728;29;20126;-80
2022/04/13 10:57:45;;;;;;;6.63;4.22;;;23.60;48.10;;;;;;4917446;29;20035;-80
2022/04/13 11:00:12;;;;;;;;;;;23.50;48.30;;;;;;4916134;29;20127;-80
2022/04/13 11:02:53;;;;;;;7.40;3.83;;;23.50;49.00;;;;;;4900154;29;20286;-80
2022/04/13 11:05:18;;;;;;;7.15;3.70;;;23.40;48.40;;;;;;4916622;29;20056;-80
2022/04/13 11:07:45;;;;;;;9.43;3.60;;;23.40;48.50;;;;;;4915002;29;20040;-80
2022/04/13 11:10:19;;;;;;;5.80;3.83;;;23.30;48.40;;;;;;4916661;29;20051;-81
2022/04/13 11:12:46;;;;;;;9.02;3.88;;;23.30;48.60;;;;;;4911487;29;20088;-80
2022/04/13 11:15:12;;;;;;;7.40;4.03;;;23.30;48.60;;;;;;4914977;29;20040;-80
2022/04/13 11:17:42;;;;;;;9.68;4.82;;;23.30;48.60;;;;;;4914558;29;20048;-80
2022/04/13 11:20:19;;;;;;;7.85;4.15;;;23.20;48.40;;;;;;4915256;29;20060;-80
2022/04/13 11:22:45;;;;;;;7.05;3.80;;;23.10;48.70;;;;;;4914319;29;20079;-80
2022/04/13 11:25:23;;;;;;;7.47;3.80;;;23.00;48.70;;;;;;4915346;29;20075;-80
2022/04/13 11:27:53;;;;;;;7.28;3.97;;;23.00;48.50;;;;;;4897461;29;20052;-80
2022/04/13 11:30:19;;;;;;;7.00;3.63;;;22.80;48.60;;;;;;4916909;29;20040;-80
2022/04/13 11:32:46;;;;;;;8.48;3.88;;;22.70;48.80;;;;;;4916355;29;20056;-80
2022/04/13 11:35:25;;;;;;;10.98;3.42;;;22.60;48.70;;;;;;4916888;29;20107;-80
2022/04/13 11:38:05;;;;;;;7.97;3.55;;;22.50;48.90;;;;;;4916549;29;20044;-80
2022/04/13 11:40:31;;;;;;;8.88;3.35;;;22.40;49.00;;;;;;4915729;29;20048;-80
2022/04/13 11:43:03;;;;;;;5.80;2.55;;;22.30;49.10;;;;;;4899909;29;20050;-81
2022/04/13 11:45:30;;;;;;;7.45;2.28;;;22.10;49.40;;;;;;4914450;29;20043;-81
2022/04/13 11:48:03;;;;;;;5.72;2.10;;;22.10;49.60;;;;;;4916155;29;20067;-81
2022/04/13 11:50:35;;;;;;;;;;;22.00;49.50;;;;;;4898603;29;20079;-81
2022/04/13 11:53:13;;;;;;;7.88;2.70;;;21.90;49.90;;;;;;4899095;29;20010;-81
2022/04/13 11:55:43;;;;;;;6.78;2.55;;;21.80;49.80;;;;;;4914485;29;20043;-81
2022/04/13 11:58:09;;;;;;;8.02;2.47;;;21.70;50.10;;;;;;4915765;29;20059;-81
2022/04/13 12:00:38;;;;;;;5.57;1.75;;;21.70;50.10;;;;;;4899223;29;20479;-81
2022/04/13 12:03:08;;;;;;;7.13;2.47;;;21.60;50.00;;;;;;4915220;29;20055;-82
2022/04/13 12:05:42;;;;;;;6.72;2.20;;;21.60;50.30;;;;;;4898220;29;20047;-81
2022/04/13 12:08:13;;;;;;;5.68;2.03;;;21.60;50.50;;;;;;4921600;29;20504;-80
2022/04/13 12:10:44;;;;;;;7.07;2.13;;;21.60;50.80;;;;;;4889275;29;20052;-80
2022/04/13 12:13:11;;;;;;;9.07;3.15;;;21.50;50.80;;;;;;4916521;29;20051;-80
2022/04/13 12:15:42;;;;;;;8.48;3.03;;;21.40;50.80;;;;;;4912702;29;20045;-81
2022/04/13 12:18:10;;;;;;;6.07;2.00;;;21.40;50.80;;;;;;4915122;29;20123;-81
2022/04/13 12:20:37;;;;;;;9.07;2.70;;;21.20;51.00;;;;;;4917138;29;20083;-83
2022/04/13 12:23:25;;;;;;;9.32;4.05;;;21.30;51.20;;;;;;4917207;29;20048;-85
2022/04/13 12:25:55;;;;;;;7.70;2.80;;;21.10;51.30;;;;;;4904553;29;20048;-83
2022/04/13 12:28:23;;;;;;;6.05;2.60;;;21.00;51.40;;;;;;4917519;29;20051;-84
2022/04/13 12:30:55;;;;;;;8.02;3.13;;;21.00;51.60;;;;;;4915705;29;20071;-83
2022/04/13 12:33:22;;;;;;;8.45;2.40;;;21.00;51.80;;;;;;4900247;29;20079;-85
2022/04/13 12:35:59;;;;;;;8.75;2.60;;;20.90;51.80;;;;;;4915187;29;20135;-84
2022/04/13 12:38:26;;;;;;;8.27;2.83;;;20.90;51.80;;;;;;4912781;29;20040;-85
2022/04/13 12:41:11;;;;;;;6.93;2.40;;;20.90;51.90;;;;;;4913279;29;20158;-86
2022/04/13 12:43:50;;;;;;;9.15;2.60;;;20.90;52.20;;;;;;4911050;29;20048;-85
2022/04/13 12:46:21;;;;;;;6.97;2.45;;;20.90;52.50;;;;;;4911749;29;20431;-85
2022/04/13 12:48:59;;;;;;;8.73;3.15;;;20.90;53.10;;;;;;4912198;29;20492;-85
2022/04/13 12:51:38;;;;;;;8.77;3.13;;;20.90;53.30;;;;;;4911279;29;20091;-85
2022/04/13 12:54:10;;;;;;;8.57;2.83;;;20.80;53.40;;;;;;4895949;29;20052;-85
2022/04/13 12:56:47;;;;;;;7.95;3.20;;;20.80;53.50;;;;;;4879006;29;20048;-85
2022/04/13 12:59:25;;;;;;;8.30;3.13;;;20.70;53.10;;;;;;4915230;29;20060;-85
2022/04/13 13:01:53;;;;;;;9.50;4.05;;;20.70;53.50;;;;;;4877457;29;20060;-85
2022/04/13 13:04:20;;;;;;;10.18;3.78;;;20.60;53.60;;;;;;4893737;29;20416;-84
2022/04/13 13:06:56;;;;;;;9.40;4.32;;;20.50;53.70;;;;;;4906204;29;20052;-84
2022/04/13 13:09:23;;;;;;;8.23;4.45;;;20.60;53.90;;;;;;4912114;29;20056;-81
2022/04/13 13:11:55;;;;;;;10.70;5.07;;;20.50;53.90;;;;;;4904156;29;20123;-82
2022/04/13 13:14:21;;;;;;;10.55;4.18;;;20.50;54.50;;;;;;4914943;29;20152;-81
2022/04/13 13:16:47;;;;;;;9.07;4.35;;;20.40;54.40;;;;;;4915583;29;20573;-81
2022/04/13 13:19:14;;;;;;;10.40;4.57;;;20.40;54.50;;;;;;4916098;29;20068;-81
2022/04/13 13:22:12;;;;;;;10.35;4.00;;;20.40;54.60;;;;;;4915696;29;20056;-81
2022/04/13 13:24:55;;;;;;;10.02;4.03;;;20.30;54.70;;;;;;4913538;29;20169;-82
2022/04/13 13:27:28;;;;;;;8.52;3.08;;;20.30;54.90;;;;;;4896764;29;20059;-82
2022/04/13 13:29:56;;;;;;;7.90;3.57;;;20.20;54.90;;;;;;4916036;29;20122;-82
2022/04/13 13:32:25;;;;;;;7.32;3.50;;;20.20;55.00;;;;;;4922329;29;20113;-81
2022/04/13 13:34:58;;;;;;;11.13;4.38;;;20.20;55.10;;;;;;4915096;29;20362;-82
2022/04/13 13:37:32;;;;;;;8.82;3.97;;;20.10;55.10;;;;;;4886757;29;20048;-81
2022/04/13 13:40:02;;;;;;;8.68;4.10;;;20.10;55.20;;;;;;4898899;29;20091;-81
2022/04/13 13:42:28;;;;;;;12.05;4.53;;;20.10;55.30;;;;;;4902829;29;20134;-81
2022/04/13 13:44:54;;;;;;;8.75;3.88;;;20.10;55.50;;;;;;4906478;29;20055;-82
2022/04/13 13:47:20;;;;;;;6.25;2.75;;;20.00;55.40;;;;;;4894716;29;20075;-82
2022/04/13 13:49:45;;;;;;;10.05;3.88;;;20.00;55.20;;;;;;4915906;29;20048;-82
2022/04/13 13:52:11;;;;;;;8.93;3.53;;;19.90;55.10;;;;;;4909018;29;20369;-82
2022/04/13 13:54:37;;;;;;;7.32;3.35;;;19.90;55.30;;;;;;4910860;29;20373;-83
2022/04/13 13:57:03;;;;;;;8.77;3.63;;;19.90;55.40;;;;;;4915782;29;20572;-82
2022/04/13 13:59:29;;;;;;;7.45;3.33;;;19.90;55.80;;;;;;4904299;29;20080;-82
2022/04/13 14:01:54;;;;;;;7.90;3.17;;;19.90;55.90;;;;;;4883190;29;20083;-82
2022/04/13 14:04:23;;;;;;;7.95;2.80;;;19.90;55.80;;;;;;4906931;29;20044;-80
2022/04/13 14:06:49;;;;;;;7.40;3.50;;;19.90;55.70;;;;;;4905936;29;20045;-81
2022/04/13 14:09:14;;;;;;;8.63;3.25;;;19.90;55.70;;;;;;4896858;29;20056;-81
2022/04/13 14:11:40;;;;;;;9.02;3.63;;;19.90;55.60;;;;;;4907393;29;20562;-80
2022/04/13 14:14:06;;;;;;;7.63;2.70;;;19.90;55.50;;;;;;4897725;29;20083;-81
2022/04/13 14:16:32;;;;;;;8.07;3.05;;;19.80;55.50;;;;;;4914800;29;20123;-81
2022/04/13 14:18:58;;;;;;;9.13;2.92;;;19.80;55.40;;;;;;4914388;29;20098;-81
2022/04/13 14:21:24;;;;;;;6.88;3.13;;;19.80;55.40;;;;;;4915933;29;20075;-81
2022/04/13 14:23:50;;;;;;;7.18;2.88;;;19.80;55.50;;;;;;4912228;29;20064;-80
2022/04/13 14:26:15;;;;;;;7.70;3.10;;;19.80;55.40;;;;;;4913900;29;20496;-81
2022/04/13 14:28:41;;;;;;;7.07;3.00;;;19.80;55.30;;;;;;4915531;29;20428;-80
2022/04/13 14:31:07;;;;;;;7.68;3.78;;;19.90;55.30;;;;;;4918184;29;20493;-80
2022/04/13 14:33:32;;;;;;;8.98;3.10;;;19.90;55.10;;;;;;4918711;29;20486;-80
2022/04/13 14:35:58;;;;;;;10.10;3.45;;;19.80;55.10;;;;;;4917628;29;20088;-81
2022/04/13 14:38:24;;;;;;;7.75;3.60;;;19.90;55.20;;;;;;4918504;29;20440;-80
2022/04/13 14:40:49;;;;;;;8.05;3.17;;;19.80;55.10;;;;;;4918970;29;20386;-80
2022/04/13 14:43:15;;;;;;;10.57;3.50;;;19.80;55.10;;;;;;4915389;29;20124;-81
2022/04/13 14:45:44;;;;;;;13.68;4.80;;;19.80;54.90;;;;;;4918841;29;20044;-81
2022/04/13 14:48:10;;;;;;;12.07;4.95;;;19.80;54.90;;;;;;4916550;29;20127;-81
2022/04/13 14:50:35;;;;;;;9.23;4.45;;;19.70;54.80;;;;;;4901506;29;20237;-81
2022/04/13 14:53:01;;;;;;;9.35;4.07;;;19.80;54.90;;;;;;4917704;29;20067;-80
2022/04/13 14:55:27;;;;;;;11.40;4.30;;;19.80;55.00;;;;;;4918533;29;20084;-82
2022/04/13 14:57:53;;;;;;;13.00;4.80;;;19.80;55.10;;;;;;4898524;29;20054;-83
2022/04/13 15:00:20;;;;;;;10.57;3.92;;;19.80;54.90;;;;;;4905741;29;20472;-82